Time;durP1;ratioP1;P1;durP2;ratioP2;P2;SDS_P1;SDS_P2;PMS_P1;PMS_P2;Temp;Humidity;BMP_temperature;BMP_pressure;BME280_temperature;BME280_humidity;BME280_pressure;Samples;Min_cycle;Max_cycle;Signal;HPM_P1;HPM_P2
2022/03/04 00:02:12;;;;;;;26.65;14.60;;;1.80;99.90;;;-144.05;100.00;68007.91;4992481;28;20101;-74
2022/03/04 00:06:43;;;;;;;26.27;15.10;;;1.70;99.90;;;-144.05;100.00;68007.91;4992799;28;20058;-74
2022/03/04 00:11:10;;;;;;;32.95;17.60;;;1.40;99.90;;;-144.05;100.00;68007.91;4991348;28;20023;-76
2022/03/04 00:15:37;;;;;;;31.40;16.58;;;1.20;99.90;;;-144.05;100.00;68007.91;4991199;28;20125;-74
2022/03/04 00:20:09;;;;;;;32.78;17.20;;;0.80;99.90;;;-144.05;100.00;68007.91;4992609;28;20042;-75
2022/03/04 00:24:36;;;;;;;32.13;16.92;;;0.70;99.90;;;-144.05;100.00;68007.91;4992722;28;20117;-76
2022/03/04 00:29:10;;;;;;;38.47;17.95;;;0.60;99.90;;;-144.05;100.00;68007.91;4992904;28;20711;-75
2022/03/04 00:33:38;;;;;;;30.73;16.23;;;0.70;99.90;;;-144.05;100.00;68007.91;4993880;28;20054;-73
2022/03/04 00:38:13;;;;;;;32.03;16.80;;;0.70;99.90;;;-144.05;100.00;68007.91;4993161;28;20039;-75
2022/03/04 00:42:41;;;;;;;33.80;16.70;;;0.60;99.90;;;-144.05;100.00;68007.91;4990931;28;20030;-76
2022/03/04 00:47:09;;;;;;;30.92;17.67;;;0.60;99.90;;;-144.05;100.00;68007.91;5010175;28;20053;-75
2022/03/04 00:51:43;;;;;;;34.67;17.92;;;0.50;99.90;;;-144.05;100.00;68007.91;5010577;28;20076;-76
2022/03/04 00:56:19;;;;;;;33.55;17.52;;;0.40;99.90;;;-144.05;100.00;68007.91;5013014;28;20555;-73
2022/03/04 01:00:49;;;;;;;33.28;17.80;;;0.50;99.90;;;-144.05;100.00;68007.91;5012309;28;20417;-74
2022/03/04 01:05:22;;;;;;;33.88;17.45;;;0.20;99.90;;;-144.05;100.00;68007.91;5012408;28;20143;-75
2022/03/04 01:09:49;;;;;;;41.42;17.63;;;0.00;99.90;;;-144.05;100.00;68007.91;5012323;28;20059;-74
2022/03/04 01:14:17;;;;;;;28.13;15.57;;;-0.20;99.90;;;-144.05;100.00;68007.91;5011776;28;20025;-75
2022/03/04 01:18:47;;;;;;;27.98;15.30;;;-0.50;99.90;;;-144.05;100.00;68007.91;5014336;28;20108;-74
2022/03/04 01:23:14;;;;;;;35.33;17.00;;;-0.90;99.90;;;-144.05;100.00;68007.91;5014524;28;20053;-75
2022/03/04 01:27:43;;;;;;;34.85;17.15;;;-1.10;99.90;;;-144.05;100.00;68007.91;5016168;28;20030;-74
2022/03/04 01:32:18;;;;;;;35.55;18.67;;;-1.20;99.90;;;-144.05;100.00;68007.91;5017272;28;20026;-74
2022/03/04 01:36:45;;;;;;;34.30;17.65;;;-0.90;99.90;;;-144.05;100.00;68007.91;5015796;28;20056;-75
2022/03/04 01:41:25;;;;;;;40.50;18.38;;;-0.60;99.90;;;-144.05;100.00;68007.91;5013959;28;20054;-74
2022/03/04 01:46:01;;;;;;;29.40;13.55;;;-0.60;99.90;;;-144.05;100.00;68007.91;5004490;28;20054;-75
2022/03/04 01:50:28;;;;;;;35.05;17.27;;;-0.50;99.90;;;-144.05;100.00;68007.91;5002968;28;20596;-73
2022/03/04 01:54:59;;;;;;;37.60;18.77;;;-0.60;99.90;;;-144.05;100.00;68007.91;4994468;28;20041;-74
2022/03/04 01:59:32;;;;;;;35.58;18.33;;;-0.70;99.90;;;-144.05;100.00;68007.91;4995963;28;20109;-78
2022/03/04 02:04:02;;;;;;;37.67;18.23;;;-0.60;99.90;;;-144.05;100.00;68007.91;4995976;28;20037;-76
2022/03/04 02:08:30;;;;;;;39.03;18.48;;;-0.50;99.90;;;-144.05;100.00;68007.91;4996819;28;20351;-75
2022/03/04 02:12:57;;;;;;;33.05;16.90;;;-0.30;99.90;;;-144.05;100.00;68007.91;4996568;28;20509;-76
2022/03/04 02:17:43;;;;;;;36.55;17.77;;;-0.30;99.90;;;-144.05;100.00;68007.91;4995434;28;20066;-75
2022/03/04 02:22:17;;;;;;;34.05;17.58;;;-0.20;99.90;;;-144.05;100.00;68007.91;4995467;28;20516;-75
2022/03/04 02:26:52;;;;;;;37.25;17.92;;;-0.10;99.90;;;-144.05;100.00;68007.91;4992692;28;20027;-74
2022/03/04 02:31:29;;;;;;;37.40;16.42;;;-0.10;99.90;;;-144.05;100.00;68007.91;4994167;28;20069;-75
2022/03/04 02:35:56;;;;;;;37.22;18.58;;;0.10;99.90;;;-144.05;100.00;68007.91;4994419;28;20421;-75
2022/03/04 02:40:27;;;;;;;39.13;18.42;;;0.10;99.90;;;-144.05;100.00;68007.91;4994460;28;20041;-75
2022/03/04 02:45:01;;;;;;;;;;;0.00;99.90;;;-144.05;100.00;68007.91;4996449;28;20478;-75
2022/03/04 02:49:34;;;;;;;36.45;19.00;;;0.00;99.90;;;-144.05;100.00;68007.91;5013458;28;19913;-75
2022/03/04 02:54:01;;;;;;;39.70;19.75;;;0.00;99.90;;;-144.05;100.00;68007.91;5014185;28;20126;-76
2022/03/04 02:58:35;;;;;;;37.03;17.58;;;0.10;99.90;;;-144.05;100.00;68007.91;5014443;28;20022;-76
2022/03/04 03:03:05;;;;;;;42.65;20.35;;;0.20;99.90;;;-144.05;100.00;68007.91;5013649;28;20025;-77
2022/03/04 03:07:33;;;;;;;41.67;19.75;;;0.20;99.90;;;-144.05;100.00;68007.91;5013766;28;20029;-75
2022/03/04 03:12:03;;;;;;;41.65;19.85;;;0.20;99.90;;;-144.05;100.00;68007.91;5013713;28;20033;-76
2022/03/04 03:16:33;;;;;;;41.40;20.02;;;0.20;99.90;;;-144.05;100.00;68007.91;5014088;28;20163;-77
2022/03/04 03:21:01;;;;;;;;;;;0.10;99.90;;;-144.05;100.00;68007.91;5013817;28;20080;-76
2022/03/04 03:25:37;;;;;;;42.75;18.95;;;0.00;99.90;;;-144.05;100.00;68007.91;5012112;28;20327;-75
2022/03/04 03:30:08;;;;;;;40.53;18.65;;;0.10;99.90;;;-144.05;100.00;68007.91;5014065;28;20026;-76
2022/03/04 03:34:42;;;;;;;39.20;18.80;;;0.00;99.90;;;-144.05;100.00;68007.91;5013829;28;20084;-75
2022/03/04 03:39:13;;;;;;;44.20;18.95;;;0.00;99.90;;;-144.05;100.00;68007.91;5014131;28;20030;-77
2022/03/04 03:43:41;;;;;;;44.30;19.40;;;-0.10;99.90;;;-144.05;100.00;68007.91;5014483;28;20461;-77
2022/03/04 03:48:09;;;;;;;40.13;19.45;;;-0.10;99.90;;;-144.05;100.00;68007.91;5013376;28;20163;-75
2022/03/04 03:52:42;;;;;;;37.17;17.80;;;-0.10;99.90;;;-144.05;100.00;68007.91;5012676;28;20377;-75
2022/03/04 03:57:16;;;;;;;43.72;20.08;;;-0.10;99.90;;;-144.05;100.00;68007.91;5013690;28;20037;-77
2022/03/04 04:01:49;;;;;;;39.60;19.20;;;-0.20;99.90;;;-144.05;100.00;68007.91;5014200;28;20042;-75
2022/03/04 04:06:25;;;;;;;38.75;17.73;;;-0.30;99.90;;;-144.05;100.00;68007.91;5012033;28;20038;-75
2022/03/04 04:10:58;;;;;;;41.03;18.90;;;-0.40;99.90;;;-144.05;100.00;68007.91;5012644;28;20447;-77
2022/03/04 04:15:32;;;;;;;43.67;19.45;;;-0.50;99.90;;;-144.05;100.00;68007.91;5014425;28;20436;-77
2022/03/04 04:20:09;;;;;;;36.63;19.48;;;-0.50;99.90;;;-144.05;100.00;68007.91;5012361;28;20040;-76
2022/03/04 04:24:36;;;;;;;41.05;19.23;;;-0.50;99.90;;;-144.05;100.00;68007.91;5013469;28;20040;-77
2022/03/04 04:29:03;;;;;;;48.53;19.38;;;-0.50;99.90;;;-144.05;100.00;68007.91;5012132;28;20022;-76
2022/03/04 04:33:31;;;;;;;41.25;19.33;;;-0.50;99.90;;;-144.05;100.00;68007.91;5014065;28;20041;-75
2022/03/04 04:38:05;;;;;;;46.35;19.10;;;-0.50;99.90;;;-144.05;100.00;68007.91;5011751;28;20417;-76
2022/03/04 04:42:35;;;;;;;39.97;18.92;;;-0.50;99.90;;;-144.05;100.00;68007.91;5012468;28;20038;-76
2022/03/04 04:47:10;;;;;;;41.72;19.95;;;-0.60;99.90;;;-144.05;100.00;68007.91;4992861;28;20034;-75
2022/03/04 04:51:37;;;;;;;41.15;19.42;;;-0.60;99.90;;;-144.05;100.00;68007.91;4996876;28;20557;-75
2022/03/04 04:56:05;;;;;;;40.65;20.20;;;-0.60;99.90;;;-144.05;100.00;68007.91;5015143;28;20090;-75
2022/03/04 05:00:36;;;;;;;50.13;20.10;;;-0.60;99.90;;;-144.05;100.00;68007.91;5014882;28;20038;-75
2022/03/04 05:05:06;;;;;;;39.70;19.88;;;-0.60;99.90;;;-144.05;100.00;68007.91;5014879;28;20026;-76
2022/03/04 05:09:36;;;;;;;42.15;18.92;;;-0.70;99.90;;;-144.05;100.00;68007.91;5019897;28;20025;-74
2022/03/04 05:14:07;;;;;;;30.67;13.88;;;-0.80;99.90;;;-144.05;100.00;68007.91;5016010;28;20414;-75
2022/03/04 05:18:34;;;;;;;39.95;19.55;;;-0.90;99.90;;;-144.05;100.00;68007.91;5015365;28;20049;-74
2022/03/04 05:23:04;;;;;;;45.83;20.60;;;-0.90;99.90;;;-144.05;100.00;68007.91;5015147;28;20118;-76
2022/03/04 05:27:39;;;;;;;35.20;14.90;;;-0.80;99.90;;;-144.05;100.00;68007.91;4997782;28;20054;-75
2022/03/04 05:32:07;;;;;;;45.92;20.65;;;-0.80;99.90;;;-144.05;100.00;68007.91;4997642;28;20095;-77
2022/03/04 05:36:35;;;;;;;41.10;20.10;;;-0.90;99.90;;;-144.05;100.00;68007.91;4997272;28;20417;-75
2022/03/04 05:41:06;;;;;;;46.45;19.80;;;-0.90;99.90;;;-144.05;100.00;68007.91;4996532;28;20057;-76
2022/03/04 05:45:36;;;;;;;48.35;20.95;;;-0.90;99.90;;;-144.05;100.00;68007.91;5001868;28;20026;-78
2022/03/04 05:50:10;;;;;;;45.95;20.27;;;-0.90;99.90;;;-144.05;100.00;68007.91;5015174;28;20432;-77
2022/03/04 05:54:37;;;;;;;44.72;20.05;;;-0.90;99.90;;;-144.05;100.00;68007.91;5019980;28;20551;-77
2022/03/04 05:59:05;;;;;;;41.67;19.95;;;-0.90;99.90;;;-144.05;100.00;68007.91;5029405;28;20033;-76
2022/03/04 06:03:39;;;;;;;44.65;20.77;;;-1.10;99.90;;;-144.05;100.00;68007.91;5025096;28;20489;-75
2022/03/04 06:08:12;;;;;;;48.15;21.13;;;-1.10;99.90;;;-144.05;100.00;68007.91;5014176;28;20448;-78
2022/03/04 06:12:46;;;;;;;50.20;22.15;;;-1.10;99.90;;;-144.05;100.00;68007.91;5016261;28;20034;-75
2022/03/04 06:17:13;;;;;;;46.35;20.48;;;-1.00;99.90;;;-144.05;100.00;68007.91;5018892;28;20044;-76
2022/03/04 06:21:40;;;;;;;45.58;21.73;;;-1.00;99.90;;;-144.05;100.00;68007.91;5015470;28;20076;-77
2022/03/04 06:26:10;;;;;;;47.55;22.10;;;-1.00;99.90;;;-144.05;100.00;68007.91;5015755;28;20029;-75
2022/03/04 06:30:38;;;;;;;46.25;21.48;;;-1.00;99.90;;;-144.05;100.00;68007.91;5016815;28;20369;-75
2022/03/04 06:35:07;;;;;;;46.95;21.92;;;-1.00;99.90;;;-144.05;100.00;68007.91;5015455;28;20057;-76
2022/03/04 06:39:36;;;;;;;47.67;22.65;;;-0.90;99.90;;;-144.05;100.00;68007.91;5014175;28;20319;-76
2022/03/04 06:44:06;;;;;;;51.70;21.48;;;-0.70;99.90;;;-144.05;100.00;68007.91;5018227;28;20033;-76
2022/03/04 06:48:36;;;;;;;43.83;20.10;;;-0.60;99.90;;;-144.05;100.00;68007.91;4995357;28;20057;-77
2022/03/04 06:53:12;;;;;;;48.33;21.83;;;-0.40;99.90;;;-144.05;100.00;68007.91;4995623;28;20078;-77
2022/03/04 06:57:43;;;;;;;50.15;20.50;;;-0.20;99.90;;;-144.05;100.00;68007.91;4994909;28;20026;-75
2022/03/04 07:02:15;;;;;;;43.28;19.75;;;0.10;99.90;;;-144.05;100.00;68007.91;4994196;28;20062;-78
2022/03/04 07:06:45;;;;;;;43.25;20.33;;;0.30;99.90;;;-144.05;100.00;68007.91;4994224;28;20035;-78
2022/03/04 07:11:13;;;;;;;44.67;21.63;;;0.50;99.90;;;-144.05;100.00;68007.91;4993851;28;20034;-78
2022/03/04 07:15:47;;;;;;;40.10;18.73;;;0.70;99.90;;;-144.05;100.00;68007.91;4995676;28;20033;-78
2022/03/04 07:20:15;;;;;;;38.92;18.98;;;0.90;99.90;;;-144.05;100.00;68007.91;4994320;28;20038;-78
2022/03/04 07:24:42;;;;;;;44.05;19.77;;;1.10;99.90;;;-144.05;100.00;68007.91;4996590;28;20039;-74
2022/03/04 07:29:19;;;;;;;37.83;18.40;;;1.30;99.90;;;-144.05;100.00;68007.91;4993977;28;20026;-76
2022/03/04 07:33:51;;;;;;;38.13;18.95;;;1.50;99.90;;;-144.05;100.00;68007.91;4994309;28;20504;-77
2022/03/04 07:38:22;;;;;;;45.15;19.52;;;1.90;99.90;;;-144.05;100.00;68007.91;4994614;28;20113;-76
2022/03/04 07:43:01;;;;;;;44.30;19.63;;;2.20;99.90;;;-144.05;100.00;68007.91;4993244;28;20022;-78
2022/03/04 07:47:32;;;;;;;40.22;19.67;;;2.30;99.90;;;-144.05;100.00;68007.91;5014565;28;20030;-76
2022/03/04 07:52:05;;;;;;;;;;;2.40;99.90;;;-144.05;100.00;68007.91;5012757;28;20049;-76
2022/03/04 07:56:33;;;;;;;38.90;18.67;;;2.70;99.90;;;-144.05;100.00;68007.91;5015105;28;20015;-77
2022/03/04 08:01:00;;;;;;;42.30;18.80;;;3.00;99.90;;;-144.05;100.00;68007.91;5013096;28;20030;-76
2022/03/04 08:05:34;;;;;;;41.72;20.50;;;3.10;99.90;;;-144.05;100.00;68007.91;5015023;28;20091;-76
2022/03/04 08:10:01;;;;;;;37.55;18.33;;;3.50;99.90;;;-144.05;100.00;68007.91;5013061;28;20083;-78
2022/03/04 08:14:29;;;;;;;45.42;20.15;;;3.70;99.90;;;-144.05;100.00;68007.91;5014126;28;20475;-77
2022/03/04 08:19:05;;;;;;;39.42;20.10;;;3.90;99.90;;;-144.05;100.00;68007.91;5014059;28;20512;-77
2022/03/04 08:23:47;;;;;;;36.60;18.45;;;4.10;99.90;;;-144.05;100.00;68007.91;5014333;28;20378;-77
2022/03/04 08:28:20;;;;;;;35.88;16.50;;;4.40;99.90;;;-144.05;100.00;68007.91;5018242;28;20628;-77
2022/03/04 08:32:48;;;;;;;42.67;19.73;;;5.00;99.90;;;-144.05;100.00;68007.91;5018258;28;20034;-77
2022/03/04 08:37:18;;;;;;;36.08;17.90;;;4.90;99.90;;;-144.05;100.00;68007.91;5017486;28;20037;-77
2022/03/04 08:41:45;;;;;;;34.80;17.73;;;5.00;99.90;;;-144.05;100.00;68007.91;5018330;28;20030;-77
2022/03/04 08:46:14;;;;;;;35.72;16.83;;;5.30;99.90;;;-144.05;100.00;68007.91;5006738;28;20033;-78
2022/03/04 08:50:50;;;;;;;33.58;18.10;;;5.70;99.90;;;-144.05;100.00;68007.91;4998598;28;20018;-76
2022/03/04 08:55:20;;;;;;;38.30;17.88;;;6.00;99.90;;;-144.05;100.00;68007.91;4999281;28;20034;-77
2022/03/04 08:59:49;;;;;;;34.70;18.30;;;6.40;99.90;;;-144.05;100.00;68007.91;5003854;28;20443;-77
2022/03/04 09:04:17;;;;;;;37.80;19.23;;;6.70;99.90;;;-144.05;100.00;68007.91;5018961;28;20074;-79
2022/03/04 09:08:51;;;;;;;33.63;17.15;;;6.90;99.90;;;-144.05;100.00;68007.91;5019621;28;20026;-77
2022/03/04 09:13:27;;;;;;;34.28;17.90;;;7.10;99.90;;;-144.05;100.00;68007.91;5017530;28;20026;-77
2022/03/04 09:17:55;;;;;;;37.88;18.55;;;7.40;99.90;;;-144.05;100.00;68007.91;4978972;28;20030;-77
2022/03/04 09:22:25;;;;;;;33.60;17.83;;;7.30;99.90;;;-144.05;100.00;68007.91;4979715;28;20045;-77
2022/03/04 09:26:53;;;;;;;31.20;16.50;;;7.40;99.90;;;-144.05;100.00;68007.91;4979451;28;20038;-78
2022/03/04 09:31:29;;;;;;;30.02;16.90;;;7.40;99.90;;;-144.05;100.00;68007.91;4980058;28;20034;-75
2022/03/04 09:36:00;;;;;;;33.83;17.25;;;7.50;97.20;;;-144.05;100.00;68007.91;4979361;28;20031;-78
2022/03/04 09:40:31;;;;;;;34.60;18.63;;;7.80;97.50;;;-144.05;100.00;68007.91;4978959;28;20464;-76
2022/03/04 09:45:02;;;;;;;;;;;7.80;96.50;;;-144.05;100.00;68007.91;4979963;28;20054;-75
2022/03/04 09:49:30;;;;;;;30.85;16.80;;;7.80;97.40;;;-144.05;100.00;68007.91;4979050;28;19913;-78
2022/03/04 09:54:04;;;;;;;34.83;16.98;;;8.20;94.10;;;-144.05;100.00;68007.91;4978766;28;20031;-77
2022/03/04 09:58:37;;;;;;;33.88;17.45;;;8.30;91.30;;;-144.05;100.00;68007.91;4992411;28;20027;-76
2022/03/04 10:03:11;;;;;;;31.90;17.40;;;8.50;89.40;;;-144.05;100.00;68007.91;4981969;28;20034;-77
2022/03/04 10:07:54;;;;;;;29.70;15.43;;;8.90;85.00;;;-144.05;100.00;68007.91;4978611;28;20045;-77
2022/03/04 10:12:45;;;;;;;28.08;16.65;;;8.90;80.10;;;-144.05;100.00;68007.91;4977971;28;20031;-78
2022/03/04 10:17:32;;;;;;;27.73;15.45;;;9.20;79.30;;;-144.05;100.00;68007.91;5015746;28;20437;-77
2022/03/04 10:22:02;;;;;;;27.88;14.38;;;9.20;76.60;;;-144.05;100.00;68007.91;5016879;28;20037;-76
2022/03/04 10:26:51;;;;;;;33.03;15.25;;;8.80;77.50;;;-144.05;100.00;68007.91;5015841;28;20381;-75
2022/03/04 10:31:34;;;;;;;26.63;14.95;;;8.80;75.50;;;-144.05;100.00;68007.91;5016908;28;20217;-76
2022/03/04 10:36:12;;;;;;;27.02;14.38;;;9.10;76.10;;;-144.05;100.00;68007.91;5017684;28;20029;-77
2022/03/04 10:41:04;;;;;;;28.92;15.35;;;9.40;75.20;;;-144.05;100.00;68007.91;4996464;28;20034;-77
2022/03/04 10:45:34;;;;;;;27.52;15.43;;;9.40;75.40;;;-144.05;100.00;68007.91;5001441;28;20062;-78
2022/03/04 10:50:09;;;;;;;33.67;16.20;;;9.40;73.90;;;-144.05;100.00;68007.91;5014966;28;20041;-75
2022/03/04 10:55:15;;;;;;;24.77;14.57;;;9.70;72.30;;;-144.05;100.00;68007.91;5015320;28;20029;-76
2022/03/04 10:59:43;;;;;;;29.67;15.63;;;9.90;72.60;;;-144.05;100.00;68007.91;5016227;28;20083;-76
2022/03/04 11:04:21;;;;;;;27.13;14.52;;;10.30;71.90;;;-144.05;100.00;68007.91;5015729;28;20022;-76
2022/03/04 11:08:53;;;;;;;31.58;17.33;;;10.20;70.80;;;-144.05;100.00;68007.91;5016054;28;20029;-77
2022/03/04 11:13:23;;;;;;;30.15;17.13;;;10.40;70.10;;;-144.05;100.00;68007.91;5015892;28;20072;-77
2022/03/04 11:17:52;;;;;;;;;;;10.60;70.40;;;-144.05;100.00;68007.91;5017986;28;20021;-77
2022/03/04 11:22:21;;;;;;;29.27;16.40;;;10.40;70.90;;;-144.05;100.00;68007.91;5016710;28;19920;-74
2022/03/04 11:27:10;;;;;;;30.70;17.60;;;10.80;71.50;;;-144.05;100.00;68007.91;5016248;28;20041;-77
2022/03/04 11:31:42;;;;;;;26.50;16.73;;;11.10;68.40;;;-144.05;100.00;68007.91;5015084;28;20032;-77
2022/03/04 11:36:10;;;;;;;30.38;17.80;;;11.10;67.60;;;-144.05;100.00;68007.91;5013834;28;20376;-76
2022/03/04 11:41:22;;;;;;;30.98;17.20;;;10.80;68.20;;;-144.05;100.00;68007.91;5015110;28;20025;-77
2022/03/04 11:46:01;;;;;;;28.85;17.23;;;10.90;68.80;;;-144.05;100.00;68007.91;4999234;28;20068;-76
2022/03/04 11:50:33;;;;;;;24.58;15.80;;;10.80;66.30;;;-144.05;100.00;68007.91;4993321;28;20027;-76
2022/03/04 11:55:31;;;;;;;34.03;16.50;;;10.50;65.10;;;-144.05;100.00;68007.91;4994616;28;20041;-74
2022/03/04 12:00:00;;;;;;;29.17;16.30;;;10.60;67.40;;;-144.05;100.00;68007.91;4993583;28;20438;-76
2022/03/04 12:04:33;;;;;;;29.45;17.42;;;10.90;65.60;;;-144.05;100.00;68007.91;4994331;28;20038;-76
2022/03/04 12:09:09;;;;;;;27.05;16.48;;;11.10;67.10;;;-144.05;100.00;68007.91;4994027;28;20037;-78
2022/03/04 12:13:37;;;;;;;30.73;18.15;;;11.10;65.80;;;-144.05;100.00;68007.91;4993468;28;20026;-77
2022/03/04 12:18:10;;;;;;;31.58;17.85;;;11.20;66.20;;;-144.05;100.00;68007.91;4993599;28;20182;-76
2022/03/04 12:22:46;;;;;;;29.65;16.70;;;11.10;68.80;;;-144.05;100.00;68007.91;4992720;28;20101;-77
2022/03/04 12:27:15;;;;;;;28.75;16.67;;;11.20;65.40;;;-144.05;100.00;68007.91;4996723;28;20096;-77
2022/03/04 12:32:13;;;;;;;30.20;16.23;;;11.20;65.90;;;-144.05;100.00;68007.91;4994256;28;20092;-75
2022/03/04 12:36:54;;;;;;;27.95;16.50;;;11.00;64.50;;;-144.05;100.00;68007.91;4993677;28;20085;-75
2022/03/04 12:41:25;;;;;;;27.30;16.00;;;11.00;64.10;;;-144.05;100.00;68007.91;4993525;28;20065;-77
2022/03/04 12:46:11;;;;;;;24.83;14.77;;;11.10;62.60;;;-144.05;100.00;68007.91;5002453;28;20014;-76
2022/03/04 12:50:45;;;;;;;22.80;12.98;;;11.30;62.50;;;-144.05;100.00;68007.91;5013491;28;20033;-76
2022/03/04 12:55:31;;;;;;;25.30;15.10;;;11.20;61.80;;;-144.05;100.00;68007.91;5013788;28;20026;-78
2022/03/04 13:00:05;;;;;;;26.33;15.82;;;11.10;63.40;;;-144.05;100.00;68007.91;5012422;28;20033;-77
2022/03/04 13:04:42;;;;;;;26.00;14.45;;;11.10;63.60;;;-144.05;100.00;68007.91;5014795;28;20025;-76
2022/03/04 13:09:12;;;;;;;23.02;13.25;;;11.10;63.30;;;-144.05;100.00;68007.91;5013881;28;20110;-76
2022/03/04 13:13:46;;;;;;;22.38;13.68;;;10.80;63.00;;;-144.05;100.00;68007.91;5016892;28;20030;-77
2022/03/04 13:18:14;;;;;;;23.60;13.25;;;10.70;63.70;;;-144.05;100.00;68007.91;5017270;28;20030;-76
2022/03/04 13:23:15;;;;;;;24.23;12.40;;;10.80;61.50;;;-144.05;100.00;68007.91;5017137;28;20500;-77
2022/03/04 13:27:50;;;;;;;17.63;11.20;;;10.60;59.40;;;-144.05;100.00;68007.91;5017043;28;20038;-77
2022/03/04 13:32:27;;;;;;;21.63;12.48;;;10.70;58.50;;;-144.05;100.00;68007.91;5015884;28;20332;-77
2022/03/04 13:37:18;;;;;;;19.00;12.32;;;10.60;59.30;;;-144.05;100.00;68007.91;5016397;28;20429;-75
2022/03/04 13:42:00;;;;;;;19.08;10.68;;;10.40;59.90;;;-144.05;100.00;68007.91;5018641;28;20026;-77
2022/03/04 13:46:33;;;;;;;21.02;10.73;;;10.60;58.90;;;-144.05;100.00;68007.91;5003250;28;20371;-79
2022/03/04 13:51:22;;;;;;;20.38;10.48;;;10.50;58.90;;;-144.05;100.00;68007.91;4998312;28;20038;-77
2022/03/04 13:56:04;;;;;;;18.73;10.35;;;10.50;60.40;;;-144.05;100.00;68007.91;4996146;28;20482;-77
2022/03/04 14:00:56;;;;;;;19.83;11.00;;;10.50;60.30;;;-144.05;100.00;68007.91;4996342;28;20034;-75
2022/03/04 14:05:34;;;;;;;18.15;9.77;;;10.30;62.00;;;-144.05;100.00;68007.91;4996424;28;20026;-76
2022/03/04 14:10:28;;;;;;;21.48;11.00;;;10.40;60.10;;;-144.05;100.00;68007.91;5007664;28;20034;-76
2022/03/04 14:14:55;;;;;;;18.52;10.05;;;10.20;61.20;;;-144.05;100.00;68007.91;4997353;28;20023;-78
2022/03/04 14:19:29;;;;;;;17.50;9.70;;;10.20;62.80;;;-144.05;100.00;68007.91;4996276;28;20405;-76
2022/03/04 14:23:57;;;;;;;15.95;10.02;;;10.10;61.10;;;-144.05;100.00;68007.91;4979424;28;20066;-76
2022/03/04 14:28:24;;;;;;;15.82;8.65;;;9.70;62.10;;;-144.05;100.00;68007.91;4997382;28;20113;-77
2022/03/04 14:32:52;;;;;;;20.42;10.32;;;9.70;61.40;;;-144.05;100.00;68007.91;4996290;28;20031;-76
2022/03/04 14:37:25;;;;;;;16.92;9.45;;;9.60;63.00;;;-144.05;100.00;68007.91;4996276;28;20105;-77
2022/03/04 14:41:58;;;;;;;16.35;8.80;;;9.60;62.20;;;-144.05;100.00;68007.91;4997341;28;20065;-77
2022/03/04 14:46:27;;;;;;;19.95;9.95;;;9.60;63.00;;;-144.05;100.00;68007.91;4991841;28;20025;-75
2022/03/04 14:50:54;;;;;;;18.27;9.95;;;9.30;64.10;;;-144.05;100.00;68007.91;5017154;28;20397;-77
2022/03/04 14:55:22;;;;;;;16.02;8.98;;;9.30;64.10;;;-144.05;100.00;68007.91;5017311;28;20115;-76
2022/03/04 14:59:56;;;;;;;16.98;8.55;;;9.10;65.90;;;-144.05;100.00;68007.91;4999533;28;20030;-77
2022/03/04 15:04:23;;;;;;;16.40;8.50;;;8.80;65.10;;;-144.05;100.00;68007.91;5000883;28;20030;-78
2022/03/04 15:08:57;;;;;;;16.88;8.35;;;8.90;66.40;;;-144.05;100.00;68007.91;5017478;28;20561;-79
2022/03/04 15:13:24;;;;;;;16.13;8.32;;;8.80;67.70;;;-144.05;100.00;68007.91;5016155;28;20034;-76
2022/03/04 15:17:55;;;;;;;15.48;8.45;;;8.90;67.80;;;-144.05;100.00;68007.91;5015918;28;20037;-78
2022/03/04 15:22:29;;;;;;;16.15;8.38;;;8.70;65.80;;;-144.05;100.00;68007.91;5015240;28;20028;-78
2022/03/04 15:26:59;;;;;;;15.38;8.05;;;8.50;67.60;;;-144.05;100.00;68007.91;4997710;28;20102;-77
2022/03/04 15:31:27;;;;;;;17.83;7.78;;;8.40;67.50;;;-144.05;100.00;68007.91;5015535;28;20049;-79
2022/03/04 15:35:55;;;;;;;11.95;6.95;;;8.30;68.80;;;-144.05;100.00;68007.91;5015467;28;20351;-78
2022/03/04 15:40:23;;;;;;;13.05;7.25;;;8.20;68.40;;;-144.05;100.00;68007.91;5015630;28;20477;-76
2022/03/04 15:45:02;;;;;;;14.55;6.63;;;8.00;67.60;;;-144.05;100.00;68007.91;5015129;28;20022;-79
2022/03/04 15:49:29;;;;;;;15.45;7.72;;;7.80;65.60;;;-144.05;100.00;68007.91;4996932;28;20030;-78
2022/03/04 15:53:57;;;;;;;13.45;6.97;;;7.70;67.90;;;-144.05;100.00;68007.91;4996890;28;20065;-79
2022/03/04 15:58:30;;;;;;;11.07;6.22;;;7.60;70.00;;;-144.05;100.00;68007.91;4997412;28;20443;-78
2022/03/04 16:02:57;;;;;;;12.85;7.00;;;7.50;70.80;;;-144.05;100.00;68007.91;4996838;28;20026;-78
2022/03/04 16:07:25;;;;;;;14.40;7.22;;;7.40;72.70;;;-144.05;100.00;68007.91;4996628;28;20037;-79
2022/03/04 16:11:56;;;;;;;14.13;7.03;;;7.30;72.90;;;-144.05;100.00;68007.91;4997898;28;20093;-78
2022/03/04 16:16:23;;;;;;;13.85;7.15;;;7.20;73.60;;;-144.05;100.00;68007.91;4998022;28;20082;-77
2022/03/04 16:20:50;;;;;;;12.40;6.20;;;7.00;73.80;;;-144.05;100.00;68007.91;4980775;28;20030;-78
2022/03/04 16:25:18;;;;;;;14.50;6.70;;;7.00;74.40;;;-144.05;100.00;68007.91;4981275;28;20082;-75
2022/03/04 16:29:45;;;;;;;13.77;6.68;;;6.90;75.00;;;-144.05;100.00;68007.91;4979540;28;20066;-79
2022/03/04 16:34:17;;;;;;;13.60;7.40;;;6.80;76.00;;;-144.05;100.00;68007.91;4997087;28;20038;-77
2022/03/04 16:38:45;;;;;;;15.18;7.20;;;6.70;76.60;;;-144.05;100.00;68007.91;4996699;28;20119;-79
2022/03/04 16:43:15;;;;;;;15.82;7.80;;;6.60;78.00;;;-144.05;100.00;68007.91;4996835;28;20037;-78
2022/03/04 16:47:44;;;;;;;16.80;8.10;;;6.50;80.00;;;-144.05;100.00;68007.91;5020696;28;20114;-79
2022/03/04 16:52:20;;;;;;;17.60;8.35;;;6.40;82.80;;;-144.05;100.00;68007.91;5002632;28;20041;-78
2022/03/04 16:56:55;;;;;;;19.55;7.43;;;6.20;88.90;;;-144.05;100.00;68007.91;5002778;28;20053;-77
2022/03/04 17:01:25;;;;;;;20.02;9.10;;;6.00;93.90;;;-144.05;100.00;68007.91;5019877;28;20030;-76
2022/03/04 17:05:53;;;;;;;19.45;9.77;;;5.90;99.50;;;-144.05;100.00;68007.91;5001838;28;20540;-78
2022/03/04 17:10:20;;;;;;;16.80;7.90;;;5.80;99.90;;;-144.05;100.00;68007.91;5019460;28;20029;-79
2022/03/04 17:14:52;;;;;;;19.15;8.43;;;5.70;99.90;;;-144.05;100.00;68007.91;5001868;28;20037;-77
2022/03/04 17:19:20;;;;;;;23.33;9.18;;;5.60;99.90;;;-144.05;100.00;68007.91;5020360;28;20485;-76
2022/03/04 17:23:48;;;;;;;17.45;8.05;;;5.60;99.90;;;-144.05;100.00;68007.91;5021068;28;20033;-77
2022/03/04 17:28:25;;;;;;;19.67;8.98;;;5.40;99.90;;;-144.05;100.00;68007.91;5022751;28;20038;-77
2022/03/04 17:32:58;;;;;;;26.55;9.98;;;5.30;99.90;;;-144.05;100.00;68007.91;5020721;28;20034;-76
2022/03/04 17:37:29;;;;;;;22.40;9.88;;;5.20;99.90;;;-144.05;100.00;68007.91;5019332;28;20033;-75
2022/03/04 17:42:07;;;;;;;20.70;9.13;;;5.10;99.90;;;-144.05;100.00;68007.91;5019015;28;20040;-77
2022/03/04 17:46:41;;;;;;;21.63;9.68;;;4.90;99.90;;;-144.05;100.00;68007.91;5009205;28;20489;-77
2022/03/04 17:51:08;;;;;;;22.63;10.20;;;4.80;99.90;;;-144.05;100.00;68007.91;4998474;28;20058;-76
2022/03/04 17:55:36;;;;;;;22.10;9.80;;;4.70;99.90;;;-144.05;100.00;68007.91;4999242;28;20070;-78
2022/03/04 18:00:08;;;;;;;20.67;8.93;;;4.60;99.90;;;-144.05;100.00;68007.91;4999633;28;20101;-77
2022/03/04 18:04:35;;;;;;;25.77;10.77;;;4.50;99.90;;;-144.05;100.00;68007.91;4999181;28;20034;-78
2022/03/04 18:09:03;;;;;;;28.00;11.02;;;4.40;99.90;;;-144.05;100.00;68007.91;4998438;28;20049;-78
2022/03/04 18:13:36;;;;;;;27.23;11.20;;;4.30;99.90;;;-144.05;100.00;68007.91;4996875;28;20390;-77
2022/03/04 18:18:03;;;;;;;24.15;11.38;;;4.20;99.90;;;-144.05;100.00;68007.91;4998448;28;20061;-78